sensor_id;sensor_type;location;lat;lon;timestamp;P1;durP1;ratioP1;P2;durP2;ratioP2
1154;SDS011;566;48.414;9.118;2022-10-17T00:02:01;6.40;;;1.40;;
1154;SDS011;566;48.414;9.118;2022-10-17T00:04:26;7.30;;;1.23;;
1154;SDS011;566;48.414;9.118;2022-10-17T00:06:52;6.82;;;1.40;;
1154;SDS011;566;48.414;9.118;2022-10-17T00:09:18;7.38;;;1.70;;
1154;SDS011;566;48.414;9.118;2022-10-17T00:11:46;7.53;;;1.73;;
1154;SDS011;566;48.414;9.118;2022-10-17T00:14:12;5.30;;;1.50;;
1154;SDS011;566;48.414;9.118;2022-10-17T00:16:37;6.40;;;1.73;;
1154;SDS011;566;48.414;9.118;2022-10-17T00:19:04;4.82;;;1.50;;
1154;SDS011;566;48.414;9.118;2022-10-17T00:21:30;7.82;;;1.45;;
1154;SDS011;566;48.414;9.118;2022-10-17T00:23:59;5.55;;;1.33;;
1154;SDS011;566;48.414;9.118;2022-10-17T00:26:25;4.22;;;1.50;;
1154;SDS011;566;48.414;9.118;2022-10-17T00:28:53;5.90;;;1.60;;
1154;SDS011;566;48.414;9.118;2022-10-17T00:31:20;3.92;;;1.42;;
1154;SDS011;566;48.414;9.118;2022-10-17T00:33:46;6.13;;;1.80;;
1154;SDS011;566;48.414;9.118;2022-10-17T00:36:13;9.60;;;1.90;;
1154;SDS011;566;48.414;9.118;2022-10-17T00:38:46;7.20;;;1.63;;
1154;SDS011;566;48.414;9.118;2022-10-17T00:41:15;6.18;;;1.65;;
1154;SDS011;566;48.414;9.118;2022-10-17T00:46:36;5.38;;;1.50;;
1154;SDS011;566;48.414;9.118;2022-10-17T00:49:06;6.28;;;1.60;;
1154;SDS011;566;48.414;9.118;2022-10-17T00:51:41;3.42;;;1.45;;
1154;SDS011;566;48.414;9.118;2022-10-17T00:54:11;5.03;;;1.40;;
1154;SDS011;566;48.414;9.118;2022-10-17T00:56:38;8.52;;;1.45;;
1154;SDS011;566;48.414;9.118;2022-10-17T00:59:04;8.57;;;1.85;;
1154;SDS011;566;48.414;9.118;2022-10-17T01:01:33;4.38;;;1.92;;
1154;SDS011;566;48.414;9.118;2022-10-17T01:03:59;6.85;;;1.70;;
1154;SDS011;566;48.414;9.118;2022-10-17T01:06:25;6.70;;;1.70;;
1154;SDS011;566;48.414;9.118;2022-10-17T01:08:50;7.70;;;1.77;;
1154;SDS011;566;48.414;9.118;2022-10-17T01:13:49;7.30;;;1.70;;
1154;SDS011;566;48.414;9.118;2022-10-17T01:21:29;6.35;;;1.63;;
1154;SDS011;566;48.414;9.118;2022-10-17T01:27:14;4.35;;;1.52;;
1154;SDS011;566;48.414;9.118;2022-10-17T01:32:21;5.90;;;1.60;;
1154;SDS011;566;48.414;9.118;2022-10-17T01:34:57;8.45;;;1.73;;
1154;SDS011;566;48.414;9.118;2022-10-17T01:37:45;7.75;;;1.65;;
1154;SDS011;566;48.414;9.118;2022-10-17T01:40:26;4.57;;;1.58;;
1154;SDS011;566;48.414;9.118;2022-10-17T01:43:06;7.43;;;1.55;;
1154;SDS011;566;48.414;9.118;2022-10-17T01:45:53;6.88;;;1.70;;
1154;SDS011;566;48.414;9.118;2022-10-17T01:48:31;3.97;;;1.50;;
1154;SDS011;566;48.414;9.118;2022-10-17T01:51:34;5.07;;;1.47;;
1154;SDS011;566;48.414;9.118;2022-10-17T01:54:01;6.35;;;1.73;;
1154;SDS011;566;48.414;9.118;2022-10-17T01:56:33;5.18;;;1.70;;
1154;SDS011;566;48.414;9.118;2022-10-17T01:59:01;7.22;;;1.58;;
1154;SDS011;566;48.414;9.118;2022-10-17T02:01:35;4.55;;;1.70;;
1154;SDS011;566;48.414;9.118;2022-10-17T02:04:02;4.60;;;1.70;;
1154;SDS011;566;48.414;9.118;2022-10-17T02:06:33;5.20;;;1.70;;
1154;SDS011;566;48.414;9.118;2022-10-17T02:08:59;5.03;;;1.88;;
1154;SDS011;566;48.414;9.118;2022-10-17T02:11:26;5.07;;;1.77;;
1154;SDS011;566;48.414;9.118;2022-10-17T02:25:01;8.00;;;1.77;;
1154;SDS011;566;48.414;9.118;2022-10-17T02:27:43;7.65;;;1.75;;
1154;SDS011;566;48.414;9.118;2022-10-17T02:30:19;4.38;;;1.50;;
1154;SDS011;566;48.414;9.118;2022-10-17T02:32:59;4.35;;;1.80;;
1154;SDS011;566;48.414;9.118;2022-10-17T02:35:37;4.95;;;1.70;;
1154;SDS011;566;48.414;9.118;2022-10-17T02:38:07;7.07;;;1.98;;
1154;SDS011;566;48.414;9.118;2022-10-17T02:40:36;4.40;;;1.60;;
1154;SDS011;566;48.414;9.118;2022-10-17T02:43:04;7.28;;;1.80;;
1154;SDS011;566;48.414;9.118;2022-10-17T02:45:30;5.13;;;1.83;;
1154;SDS011;566;48.414;9.118;2022-10-17T02:53:24;8.32;;;2.00;;
1154;SDS011;566;48.414;9.118;2022-10-17T02:55:57;10.60;;;1.92;;
1154;SDS011;566;48.414;9.118;2022-10-17T02:58:28;5.57;;;1.60;;
1154;SDS011;566;48.414;9.118;2022-10-17T03:00:57;6.53;;;1.98;;
1154;SDS011;566;48.414;9.118;2022-10-17T03:03:27;5.88;;;1.77;;
1154;SDS011;566;48.414;9.118;2022-10-17T03:05:55;6.35;;;1.83;;
1154;SDS011;566;48.414;9.118;2022-10-17T03:08:20;3.65;;;1.73;;
1154;SDS011;566;48.414;9.118;2022-10-17T03:10:47;4.22;;;2.05;;
1154;SDS011;566;48.414;9.118;2022-10-17T03:13:13;7.05;;;1.92;;
1154;SDS011;566;48.414;9.118;2022-10-17T03:15:39;5.20;;;1.75;;
1154;SDS011;566;48.414;9.118;2022-10-17T03:18:04;4.07;;;1.60;;
1154;SDS011;566;48.414;9.118;2022-10-17T03:20:30;6.10;;;2.20;;
1154;SDS011;566;48.414;9.118;2022-10-17T03:22:56;5.45;;;1.50;;
1154;SDS011;566;48.414;9.118;2022-10-17T03:25:22;5.45;;;1.50;;
1154;SDS011;566;48.414;9.118;2022-10-17T03:27:47;5.75;;;1.50;;
1154;SDS011;566;48.414;9.118;2022-10-17T03:30:13;5.00;;;1.55;;
1154;SDS011;566;48.414;9.118;2022-10-17T03:32:39;3.88;;;1.55;;
1154;SDS011;566;48.414;9.118;2022-10-17T03:35:07;6.97;;;2.10;;
1154;SDS011;566;48.414;9.118;2022-10-17T03:37:33;3.33;;;1.73;;
1154;SDS011;566;48.414;9.118;2022-10-17T03:39:59;5.03;;;1.77;;
1154;SDS011;566;48.414;9.118;2022-10-17T03:42:25;7.13;;;1.80;;
1154;SDS011;566;48.414;9.118;2022-10-17T03:44:50;4.80;;;1.67;;
1154;SDS011;566;48.414;9.118;2022-10-17T03:47:16;5.43;;;1.80;;
1154;SDS011;566;48.414;9.118;2022-10-17T03:49:42;4.05;;;1.70;;
1154;SDS011;566;48.414;9.118;2022-10-17T03:52:11;5.18;;;1.58;;
1154;SDS011;566;48.414;9.118;2022-10-17T03:54:40;5.90;;;1.90;;
1154;SDS011;566;48.414;9.118;2022-10-17T03:57:06;5.43;;;1.65;;
1154;SDS011;566;48.414;9.118;2022-10-17T03:59:31;6.60;;;2.00;;
1154;SDS011;566;48.414;9.118;2022-10-17T04:01:57;4.25;;;1.77;;
1154;SDS011;566;48.414;9.118;2022-10-17T04:04:26;5.85;;;2.13;;
1154;SDS011;566;48.414;9.118;2022-10-17T04:06:51;4.75;;;1.63;;
1154;SDS011;566;48.414;9.118;2022-10-17T04:09:18;3.75;;;1.83;;
1154;SDS011;566;48.414;9.118;2022-10-17T04:11:45;6.70;;;2.00;;
1154;SDS011;566;48.414;9.118;2022-10-17T04:14:11;5.75;;;2.10;;
1154;SDS011;566;48.414;9.118;2022-10-17T04:16:37;5.22;;;2.00;;
1154;SDS011;566;48.414;9.118;2022-10-17T04:19:05;4.20;;;1.83;;
1154;SDS011;566;48.414;9.118;2022-10-17T04:21:31;4.57;;;1.70;;
1154;SDS011;566;48.414;9.118;2022-10-17T04:23:58;7.72;;;2.00;;
1154;SDS011;566;48.414;9.118;2022-10-17T04:26:24;6.25;;;1.92;;
1154;SDS011;566;48.414;9.118;2022-10-17T04:28:51;6.40;;;2.00;;
1154;SDS011;566;48.414;9.118;2022-10-17T04:31:17;4.80;;;1.98;;
1154;SDS011;566;48.414;9.118;2022-10-17T04:33:45;5.63;;;2.25;;
1154;SDS011;566;48.414;9.118;2022-10-17T04:36:13;6.25;;;1.70;;
1154;SDS011;566;48.414;9.118;2022-10-17T04:38:41;3.85;;;1.70;;
1154;SDS011;566;48.414;9.118;2022-10-17T04:41:09;7.50;;;1.75;;
1154;SDS011;566;48.414;9.118;2022-10-17T04:43:37;5.20;;;1.67;;
1154;SDS011;566;48.414;9.118;2022-10-17T04:46:04;9.35;;;2.55;;
1154;SDS011;566;48.414;9.118;2022-10-17T04:48:31;5.53;;;1.85;;
1154;SDS011;566;48.414;9.118;2022-10-17T04:50:58;7.60;;;2.08;;
1154;SDS011;566;48.414;9.118;2022-10-17T04:53:27;4.97;;;2.10;;
1154;SDS011;566;48.414;9.118;2022-10-17T04:55:55;5.93;;;2.25;;
1154;SDS011;566;48.414;9.118;2022-10-17T04:58:21;11.05;;;2.00;;
1154;SDS011;566;48.414;9.118;2022-10-17T05:00:48;8.75;;;1.80;;
1154;SDS011;566;48.414;9.118;2022-10-17T05:03:14;8.88;;;1.70;;
1154;SDS011;566;48.414;9.118;2022-10-17T05:05:40;6.97;;;1.88;;
1154;SDS011;566;48.414;9.118;2022-10-17T05:08:06;6.30;;;2.20;;
1154;SDS011;566;48.414;9.118;2022-10-17T05:10:37;5.28;;;1.73;;
1154;SDS011;566;48.414;9.118;2022-10-17T05:13:04;5.32;;;1.77;;
1154;SDS011;566;48.414;9.118;2022-10-17T05:15:30;4.57;;;1.70;;
1154;SDS011;566;48.414;9.118;2022-10-17T05:17:56;4.25;;;1.90;;
1154;SDS011;566;48.414;9.118;2022-10-17T05:20:22;3.45;;;1.70;;
1154;SDS011;566;48.414;9.118;2022-10-17T05:22:48;4.68;;;1.75;;
1154;SDS011;566;48.414;9.118;2022-10-17T05:25:14;3.85;;;1.80;;
1154;SDS011;566;48.414;9.118;2022-10-17T05:27:40;6.55;;;2.40;;
1154;SDS011;566;48.414;9.118;2022-10-17T05:30:06;5.18;;;1.70;;
1154;SDS011;566;48.414;9.118;2022-10-17T05:32:32;4.20;;;1.85;;
1154;SDS011;566;48.414;9.118;2022-10-17T05:34:58;4.28;;;1.60;;
1154;SDS011;566;48.414;9.118;2022-10-17T05:37:23;3.88;;;1.85;;
1154;SDS011;566;48.414;9.118;2022-10-17T05:39:49;7.97;;;1.90;;
1154;SDS011;566;48.414;9.118;2022-10-17T05:42:15;5.40;;;1.95;;
1154;SDS011;566;48.414;9.118;2022-10-17T05:44:40;6.05;;;1.65;;
1154;SDS011;566;48.414;9.118;2022-10-17T05:47:09;3.35;;;1.55;;
1154;SDS011;566;48.414;9.118;2022-10-17T05:49:35;3.97;;;1.75;;
1154;SDS011;566;48.414;9.118;2022-10-17T05:52:00;6.20;;;1.88;;
1154;SDS011;566;48.414;9.118;2022-10-17T05:54:26;4.78;;;1.55;;
1154;SDS011;566;48.414;9.118;2022-10-17T05:56:55;6.55;;;1.75;;
1154;SDS011;566;48.414;9.118;2022-10-17T05:59:23;4.10;;;1.80;;
1154;SDS011;566;48.414;9.118;2022-10-17T06:01:49;4.95;;;1.90;;
1154;SDS011;566;48.414;9.118;2022-10-17T06:04:15;7.72;;;2.30;;
1154;SDS011;566;48.414;9.118;2022-10-17T06:06:41;4.28;;;2.00;;
1154;SDS011;566;48.414;9.118;2022-10-17T06:09:07;6.20;;;1.77;;
1154;SDS011;566;48.414;9.118;2022-10-17T06:11:34;5.93;;;1.90;;
1154;SDS011;566;48.414;9.118;2022-10-17T06:14:00;3.80;;;1.80;;
1154;SDS011;566;48.414;9.118;2022-10-17T06:16:26;4.72;;;1.98;;
1154;SDS011;566;48.414;9.118;2022-10-17T06:18:51;9.48;;;2.03;;
1154;SDS011;566;48.414;9.118;2022-10-17T06:21:22;4.65;;;2.20;;
1154;SDS011;566;48.414;9.118;2022-10-17T06:23:51;5.93;;;2.67;;
1154;SDS011;566;48.414;9.118;2022-10-17T06:26:17;6.32;;;1.90;;
1154;SDS011;566;48.414;9.118;2022-10-17T06:28:43;6.20;;;2.13;;
1154;SDS011;566;48.414;9.118;2022-10-17T06:31:10;3.47;;;1.67;;
1154;SDS011;566;48.414;9.118;2022-10-17T06:33:37;4.18;;;1.80;;
1154;SDS011;566;48.414;9.118;2022-10-17T06:36:04;5.85;;;1.80;;
1154;SDS011;566;48.414;9.118;2022-10-17T06:38:35;6.70;;;2.17;;
1154;SDS011;566;48.414;9.118;2022-10-17T06:41:11;6.57;;;2.03;;
1154;SDS011;566;48.414;9.118;2022-10-17T06:43:39;7.05;;;2.05;;
1154;SDS011;566;48.414;9.118;2022-10-17T06:46:11;9.00;;;2.15;;
1154;SDS011;566;48.414;9.118;2022-10-17T06:48:38;7.18;;;2.20;;
1154;SDS011;566;48.414;9.118;2022-10-17T06:51:04;10.10;;;2.53;;
1154;SDS011;566;48.414;9.118;2022-10-17T06:53:33;5.97;;;1.73;;
1154;SDS011;566;48.414;9.118;2022-10-17T06:56:00;6.60;;;1.95;;
1154;SDS011;566;48.414;9.118;2022-10-17T06:58:27;7.32;;;2.08;;
1154;SDS011;566;48.414;9.118;2022-10-17T07:01:01;4.60;;;1.92;;
1154;SDS011;566;48.414;9.118;2022-10-17T07:03:31;5.30;;;2.10;;
1154;SDS011;566;48.414;9.118;2022-10-17T07:05:57;7.20;;;2.40;;
1154;SDS011;566;48.414;9.118;2022-10-17T07:08:23;4.78;;;2.58;;
1154;SDS011;566;48.414;9.118;2022-10-17T07:10:49;6.47;;;2.45;;
1154;SDS011;566;48.414;9.118;2022-10-17T07:13:16;3.88;;;2.00;;
1154;SDS011;566;48.414;9.118;2022-10-17T07:15:42;5.95;;;2.33;;
1154;SDS011;566;48.414;9.118;2022-10-17T07:18:08;7.10;;;2.00;;
1154;SDS011;566;48.414;9.118;2022-10-17T07:20:37;8.60;;;2.17;;
1154;SDS011;566;48.414;9.118;2022-10-17T07:23:02;6.63;;;2.10;;
1154;SDS011;566;48.414;9.118;2022-10-17T07:25:28;8.05;;;3.60;;
1154;SDS011;566;48.414;9.118;2022-10-17T07:27:54;11.40;;;6.45;;
1154;SDS011;566;48.414;9.118;2022-10-17T07:30:20;10.35;;;5.20;;
1154;SDS011;566;48.414;9.118;2022-10-17T07:32:46;6.82;;;3.25;;
1154;SDS011;566;48.414;9.118;2022-10-17T07:35:12;6.25;;;3.53;;
1154;SDS011;566;48.414;9.118;2022-10-17T07:37:38;10.15;;;3.25;;
1154;SDS011;566;48.414;9.118;2022-10-17T07:40:05;9.70;;;3.80;;
1154;SDS011;566;48.414;9.118;2022-10-17T07:42:32;5.72;;;3.28;;
1154;SDS011;566;48.414;9.118;2022-10-17T07:45:00;4.22;;;2.47;;
1154;SDS011;566;48.414;9.118;2022-10-17T07:47:26;7.10;;;2.70;;
1154;SDS011;566;48.414;9.118;2022-10-17T07:49:54;9.35;;;2.35;;
1154;SDS011;566;48.414;9.118;2022-10-17T07:52:20;4.80;;;2.03;;
1154;SDS011;566;48.414;9.118;2022-10-17T07:54:46;5.95;;;2.65;;
1154;SDS011;566;48.414;9.118;2022-10-17T07:57:11;5.72;;;2.10;;
1154;SDS011;566;48.414;9.118;2022-10-17T07:59:37;6.53;;;1.90;;
1154;SDS011;566;48.414;9.118;2022-10-17T08:02:03;7.13;;;1.90;;
1154;SDS011;566;48.414;9.118;2022-10-17T08:04:29;8.15;;;1.67;;
1154;SDS011;566;48.414;9.118;2022-10-17T08:06:55;5.20;;;1.48;;
1154;SDS011;566;48.414;9.118;2022-10-17T08:09:20;3.53;;;1.65;;
1154;SDS011;566;48.414;9.118;2022-10-17T08:11:46;6.20;;;1.95;;
1154;SDS011;566;48.414;9.118;2022-10-17T08:14:13;4.65;;;1.13;;
1154;SDS011;566;48.414;9.118;2022-10-17T08:16:40;5.30;;;1.05;;
1154;SDS011;566;48.414;9.118;2022-10-17T08:19:07;5.35;;;1.20;;
1154;SDS011;566;48.414;9.118;2022-10-17T08:21:33;4.07;;;1.33;;
1154;SDS011;566;48.414;9.118;2022-10-17T08:23:59;5.40;;;1.58;;
1154;SDS011;566;48.414;9.118;2022-10-17T08:26:26;6.40;;;1.42;;
1154;SDS011;566;48.414;9.118;2022-10-17T08:28:52;7.50;;;2.00;;
1154;SDS011;566;48.414;9.118;2022-10-17T08:31:18;9.80;;;2.47;;
1154;SDS011;566;48.414;9.118;2022-10-17T08:33:45;5.82;;;2.30;;
1154;SDS011;566;48.414;9.118;2022-10-17T08:36:12;12.25;;;2.35;;
1154;SDS011;566;48.414;9.118;2022-10-17T08:38:39;13.52;;;2.90;;
1154;SDS011;566;48.414;9.118;2022-10-17T08:44:10;10.10;;;1.75;;
1154;SDS011;566;48.414;9.118;2022-10-17T08:46:54;8.00;;;1.90;;
1154;SDS011;566;48.414;9.118;2022-10-17T08:50:11;6.90;;;2.05;;
1154;SDS011;566;48.414;9.118;2022-10-17T08:55:15;6.05;;;1.80;;
1154;SDS011;566;48.414;9.118;2022-10-17T08:57:50;6.28;;;1.70;;
1154;SDS011;566;48.414;9.118;2022-10-17T09:00:17;6.60;;;1.60;;
1154;SDS011;566;48.414;9.118;2022-10-17T09:03:02;4.35;;;1.38;;
1154;SDS011;566;48.414;9.118;2022-10-17T09:08:19;4.93;;;1.55;;
1154;SDS011;566;48.414;9.118;2022-10-17T09:10:56;5.20;;;1.60;;
1154;SDS011;566;48.414;9.118;2022-10-17T09:16:49;8.05;;;2.00;;
1154;SDS011;566;48.414;9.118;2022-10-17T09:19:24;5.45;;;1.38;;
1154;SDS011;566;48.414;9.118;2022-10-17T09:22:08;6.18;;;1.50;;
1154;SDS011;566;48.414;9.118;2022-10-17T09:27:35;6.90;;;1.10;;
1154;SDS011;566;48.414;9.118;2022-10-17T09:30:19;3.72;;;1.10;;
1154;SDS011;566;48.414;9.118;2022-10-17T09:35:39;4.95;;;1.20;;
1154;SDS011;566;48.414;9.118;2022-10-17T09:38:08;6.30;;;1.10;;
1154;SDS011;566;48.414;9.118;2022-10-17T09:40:40;2.90;;;0.95;;
1154;SDS011;566;48.414;9.118;2022-10-17T09:43:06;5.00;;;0.90;;
1154;SDS011;566;48.414;9.118;2022-10-17T09:45:37;3.72;;;0.98;;
1154;SDS011;566;48.414;9.118;2022-10-17T09:50:37;2.10;;;0.90;;
1154;SDS011;566;48.414;9.118;2022-10-17T09:53:14;3.15;;;1.00;;
1154;SDS011;566;48.414;9.118;2022-10-17T09:55:49;6.10;;;1.10;;
1154;SDS011;566;48.414;9.118;2022-10-17T09:58:20;3.55;;;1.25;;
1154;SDS011;566;48.414;9.118;2022-10-17T10:00:47;5.15;;;0.90;;
1154;SDS011;566;48.414;9.118;2022-10-17T10:03:14;6.22;;;1.00;;
1154;SDS011;566;48.414;9.118;2022-10-17T10:08:53;4.13;;;1.10;;
1154;SDS011;566;48.414;9.118;2022-10-17T10:11:42;5.35;;;1.20;;
1154;SDS011;566;48.414;9.118;2022-10-17T10:14:22;4.93;;;1.30;;
1154;SDS011;566;48.414;9.118;2022-10-17T10:16:52;4.68;;;1.30;;
1154;SDS011;566;48.414;9.118;2022-10-17T10:19:20;3.15;;;1.10;;
1154;SDS011;566;48.414;9.118;2022-10-17T10:21:53;6.97;;;1.30;;
1154;SDS011;566;48.414;9.118;2022-10-17T10:24:21;4.30;;;1.20;;
1154;SDS011;566;48.414;9.118;2022-10-17T10:26:47;5.25;;;1.20;;
1154;SDS011;566;48.414;9.118;2022-10-17T10:29:31;4.00;;;1.50;;
1154;SDS011;566;48.414;9.118;2022-10-17T10:34:52;8.52;;;1.77;;
1154;SDS011;566;48.414;9.118;2022-10-17T10:39:53;8.52;;;1.40;;
1154;SDS011;566;48.414;9.118;2022-10-17T10:44:49;6.32;;;1.50;;
1154;SDS011;566;48.414;9.118;2022-10-17T10:47:34;10.80;;;1.95;;
1154;SDS011;566;48.414;9.118;2022-10-17T10:50:08;8.35;;;1.60;;
1154;SDS011;566;48.414;9.118;2022-10-17T10:58:47;10.90;;;1.73;;
1154;SDS011;566;48.414;9.118;2022-10-17T11:01:21;5.72;;;1.80;;
1154;SDS011;566;48.414;9.118;2022-10-17T11:13:08;8.18;;;1.60;;
1154;SDS011;566;48.414;9.118;2022-10-17T11:15:30;7.90;;;2.10;;
1154;SDS011;566;48.414;9.118;2022-10-17T11:19:06;7.03;;;1.90;;
1154;SDS011;566;48.414;9.118;2022-10-17T11:21:01;6.82;;;1.83;;
1154;SDS011;566;48.414;9.118;2022-10-17T11:23:46;10.23;;;2.10;;
1154;SDS011;566;48.414;9.118;2022-10-17T11:26:18;6.82;;;2.33;;
1154;SDS011;566;48.414;9.118;2022-10-17T11:29:02;6.47;;;1.65;;
1154;SDS011;566;48.414;9.118;2022-10-17T11:31:30;5.63;;;1.58;;
1154;SDS011;566;48.414;9.118;2022-10-17T11:36:45;5.13;;;1.75;;
1154;SDS011;566;48.414;9.118;2022-10-17T11:39:57;6.30;;;2.08;;
1154;SDS011;566;48.414;9.118;2022-10-17T11:42:13;5.80;;;2.03;;
1154;SDS011;566;48.414;9.118;2022-10-17T11:44:59;6.72;;;2.25;;
1154;SDS011;566;48.414;9.118;2022-10-17T11:47:37;8.88;;;1.85;;
1154;SDS011;566;48.414;9.118;2022-10-17T11:50:27;10.30;;;1.90;;
1154;SDS011;566;48.414;9.118;2022-10-17T11:53:00;6.13;;;2.10;;
1154;SDS011;566;48.414;9.118;2022-10-17T11:55:32;8.38;;;2.03;;
1154;SDS011;566;48.414;9.118;2022-10-17T12:03:47;8.38;;;2.05;;
1154;SDS011;566;48.414;9.118;2022-10-17T12:09:22;7.05;;;2.40;;
1154;SDS011;566;48.414;9.118;2022-10-17T12:12:01;7.40;;;2.13;;
1154;SDS011;566;48.414;9.118;2022-10-17T12:14:39;10.60;;;2.47;;
1154;SDS011;566;48.414;9.118;2022-10-17T12:17:05;6.03;;;2.08;;
1154;SDS011;566;48.414;9.118;2022-10-17T12:22:59;7.63;;;2.22;;
1154;SDS011;566;48.414;9.118;2022-10-17T12:30:56;5.53;;;1.70;;
1154;SDS011;566;48.414;9.118;2022-10-17T12:33:39;6.32;;;1.90;;
1154;SDS011;566;48.414;9.118;2022-10-17T12:38:47;5.20;;;1.80;;
1154;SDS011;566;48.414;9.118;2022-10-17T12:46:49;5.68;;;1.77;;
1154;SDS011;566;48.414;9.118;2022-10-17T12:49:37;6.53;;;2.00;;
1154;SDS011;566;48.414;9.118;2022-10-17T12:52:17;7.63;;;2.15;;
1154;SDS011;566;48.414;9.118;2022-10-17T12:55:09;4.82;;;1.83;;
1154;SDS011;566;48.414;9.118;2022-10-17T12:57:59;6.38;;;1.70;;
1154;SDS011;566;48.414;9.118;2022-10-17T13:03:21;7.45;;;1.77;;
1154;SDS011;566;48.414;9.118;2022-10-17T13:05:51;7.47;;;1.45;;
1154;SDS011;566;48.414;9.118;2022-10-17T13:08:23;6.57;;;1.70;;
1154;SDS011;566;48.414;9.118;2022-10-17T13:13:20;5.45;;;1.80;;
1154;SDS011;566;48.414;9.118;2022-10-17T13:16:01;4.88;;;1.48;;
1154;SDS011;566;48.414;9.118;2022-10-17T13:18:27;7.22;;;1.48;;
1154;SDS011;566;48.414;9.118;2022-10-17T13:21:03;5.22;;;1.52;;
1154;SDS011;566;48.414;9.118;2022-10-17T13:23:39;6.10;;;1.50;;
1154;SDS011;566;48.414;9.118;2022-10-17T13:28:34;4.53;;;1.52;;
1154;SDS011;566;48.414;9.118;2022-10-17T13:31:00;4.60;;;1.40;;
1154;SDS011;566;48.414;9.118;2022-10-17T13:33:36;4.70;;;1.38;;
1154;SDS011;566;48.414;9.118;2022-10-17T13:36:05;4.95;;;1.50;;
1154;SDS011;566;48.414;9.118;2022-10-17T13:38:32;5.28;;;1.55;;
1154;SDS011;566;48.414;9.118;2022-10-17T13:41:01;5.25;;;1.65;;
1154;SDS011;566;48.414;9.118;2022-10-17T13:43:27;11.15;;;1.60;;
1154;SDS011;566;48.414;9.118;2022-10-17T13:45:56;5.43;;;1.10;;
1154;SDS011;566;48.414;9.118;2022-10-17T13:48:29;7.13;;;1.60;;
1154;SDS011;566;48.414;9.118;2022-10-17T13:50:59;5.10;;;1.40;;
1154;SDS011;566;48.414;9.118;2022-10-17T13:53:32;5.07;;;1.70;;
1154;SDS011;566;48.414;9.118;2022-10-17T14:01:07;5.20;;;1.15;;
1154;SDS011;566;48.414;9.118;2022-10-17T14:03:34;10.43;;;1.65;;
1154;SDS011;566;48.414;9.118;2022-10-17T14:09:20;4.65;;;1.23;;
1154;SDS011;566;48.414;9.118;2022-10-17T14:12:01;6.72;;;1.30;;
1154;SDS011;566;48.414;9.118;2022-10-17T14:14:37;5.38;;;1.23;;
1154;SDS011;566;48.414;9.118;2022-10-17T14:17:14;3.78;;;1.55;;
1154;SDS011;566;48.414;9.118;2022-10-17T14:19:49;4.55;;;1.33;;
1154;SDS011;566;48.414;9.118;2022-10-17T14:22:26;6.10;;;1.30;;
1154;SDS011;566;48.414;9.118;2022-10-17T14:24:53;4.53;;;1.20;;
1154;SDS011;566;48.414;9.118;2022-10-17T14:27:30;4.10;;;1.20;;
1154;SDS011;566;48.414;9.118;2022-10-17T14:30:44;3.97;;;1.30;;
1154;SDS011;566;48.414;9.118;2022-10-17T14:32:54;5.55;;;1.42;;
1154;SDS011;566;48.414;9.118;2022-10-17T14:35:22;5.57;;;1.45;;
1154;SDS011;566;48.414;9.118;2022-10-17T14:37:49;4.80;;;1.50;;
1154;SDS011;566;48.414;9.118;2022-10-17T14:40:23;7.38;;;1.50;;
1154;SDS011;566;48.414;9.118;2022-10-17T14:42:51;5.63;;;1.63;;
1154;SDS011;566;48.414;9.118;2022-10-17T14:45:30;3.83;;;1.40;;
1154;SDS011;566;48.414;9.118;2022-10-17T14:48:08;4.28;;;1.50;;
1154;SDS011;566;48.414;9.118;2022-10-17T14:50:38;6.00;;;1.53;;
1154;SDS011;566;48.414;9.118;2022-10-17T14:53:05;6.35;;;1.60;;
1154;SDS011;566;48.414;9.118;2022-10-17T14:55:37;6.28;;;1.70;;
1154;SDS011;566;48.414;9.118;2022-10-17T14:58:14;6.22;;;1.50;;
1154;SDS011;566;48.414;9.118;2022-10-17T15:00:41;6.82;;;1.38;;
1154;SDS011;566;48.414;9.118;2022-10-17T15:03:07;6.93;;;1.60;;
1154;SDS011;566;48.414;9.118;2022-10-17T15:05:33;7.03;;;1.70;;
1154;SDS011;566;48.414;9.118;2022-10-17T15:07:59;5.55;;;1.63;;
1154;SDS011;566;48.414;9.118;2022-10-17T15:10:32;4.80;;;1.40;;
1154;SDS011;566;48.414;9.118;2022-10-17T15:13:00;6.70;;;1.30;;
1154;SDS011;566;48.414;9.118;2022-10-17T15:15:29;6.78;;;1.50;;
1154;SDS011;566;48.414;9.118;2022-10-17T15:17:56;7.45;;;1.73;;
1154;SDS011;566;48.414;9.118;2022-10-17T15:20:23;7.07;;;2.45;;
1154;SDS011;566;48.414;9.118;2022-10-17T15:22:52;9.45;;;2.10;;
1154;SDS011;566;48.414;9.118;2022-10-17T15:25:18;8.02;;;1.80;;
1154;SDS011;566;48.414;9.118;2022-10-17T15:27:44;5.38;;;1.58;;
1154;SDS011;566;48.414;9.118;2022-10-17T15:30:20;4.32;;;1.55;;
1154;SDS011;566;48.414;9.118;2022-10-17T15:32:48;3.90;;;1.20;;
1154;SDS011;566;48.414;9.118;2022-10-17T15:35:14;7.78;;;1.67;;
1154;SDS011;566;48.414;9.118;2022-10-17T15:37:41;6.63;;;1.52;;
1154;SDS011;566;48.414;9.118;2022-10-17T15:40:20;4.60;;;1.20;;
1154;SDS011;566;48.414;9.118;2022-10-17T15:42:48;5.05;;;1.67;;
1154;SDS011;566;48.414;9.118;2022-10-17T15:45:15;7.78;;;2.10;;
1154;SDS011;566;48.414;9.118;2022-10-17T15:47:43;7.03;;;1.75;;
1154;SDS011;566;48.414;9.118;2022-10-17T15:50:15;5.75;;;1.60;;
1154;SDS011;566;48.414;9.118;2022-10-17T15:52:41;8.60;;;1.35;;
1154;SDS011;566;48.414;9.118;2022-10-17T15:55:08;5.68;;;1.60;;
1154;SDS011;566;48.414;9.118;2022-10-17T15:57:39;6.10;;;1.42;;
1154;SDS011;566;48.414;9.118;2022-10-17T16:00:11;10.82;;;1.90;;
1154;SDS011;566;48.414;9.118;2022-10-17T16:02:42;10.50;;;2.03;;
1154;SDS011;566;48.414;9.118;2022-10-17T16:05:18;5.68;;;2.10;;
1154;SDS011;566;48.414;9.118;2022-10-17T16:07:49;17.45;;;2.30;;
1154;SDS011;566;48.414;9.118;2022-10-17T16:10:16;8.77;;;2.20;;
1154;SDS011;566;48.414;9.118;2022-10-17T16:12:43;14.38;;;2.00;;
1154;SDS011;566;48.414;9.118;2022-10-17T16:15:13;7.15;;;1.80;;
1154;SDS011;566;48.414;9.118;2022-10-17T16:17:41;10.70;;;1.85;;
1154;SDS011;566;48.414;9.118;2022-10-17T16:20:07;8.07;;;1.70;;
1154;SDS011;566;48.414;9.118;2022-10-17T16:22:34;7.75;;;1.98;;
1154;SDS011;566;48.414;9.118;2022-10-17T16:25:05;9.93;;;2.13;;
1154;SDS011;566;48.414;9.118;2022-10-17T16:27:43;12.40;;;4.05;;
1154;SDS011;566;48.414;9.118;2022-10-17T16:30:10;12.40;;;3.90;;
1154;SDS011;566;48.414;9.118;2022-10-17T16:32:36;14.10;;;3.20;;
1154;SDS011;566;48.414;9.118;2022-10-17T16:35:01;14.45;;;2.95;;
1154;SDS011;566;48.414;9.118;2022-10-17T16:37:28;7.38;;;2.50;;
1154;SDS011;566;48.414;9.118;2022-10-17T16:39:53;8.23;;;2.30;;
1154;SDS011;566;48.414;9.118;2022-10-17T16:42:19;8.30;;;2.00;;
1154;SDS011;566;48.414;9.118;2022-10-17T16:44:45;6.28;;;1.90;;
1154;SDS011;566;48.414;9.118;2022-10-17T16:47:11;7.53;;;2.10;;
1154;SDS011;566;48.414;9.118;2022-10-17T16:49:37;10.05;;;2.70;;
1154;SDS011;566;48.414;9.118;2022-10-17T16:52:03;9.93;;;2.22;;
1154;SDS011;566;48.414;9.118;2022-10-17T16:54:29;6.85;;;2.22;;
1154;SDS011;566;48.414;9.118;2022-10-17T16:56:55;9.70;;;2.30;;
1154;SDS011;566;48.414;9.118;2022-10-17T16:59:23;6.28;;;1.88;;
1154;SDS011;566;48.414;9.118;2022-10-17T17:01:49;8.20;;;2.00;;
1154;SDS011;566;48.414;9.118;2022-10-17T17:04:15;7.80;;;2.00;;
1154;SDS011;566;48.414;9.118;2022-10-17T17:06:41;7.05;;;2.53;;
1154;SDS011;566;48.414;9.118;2022-10-17T17:09:07;6.70;;;2.00;;
1154;SDS011;566;48.414;9.118;2022-10-17T17:11:33;10.65;;;2.42;;
1154;SDS011;566;48.414;9.118;2022-10-17T17:14:03;9.57;;;1.92;;
1154;SDS011;566;48.414;9.118;2022-10-17T17:16:30;7.32;;;1.88;;
1154;SDS011;566;48.414;9.118;2022-10-17T17:19:00;12.93;;;2.08;;
1154;SDS011;566;48.414;9.118;2022-10-17T17:21:28;8.63;;;2.00;;
1154;SDS011;566;48.414;9.118;2022-10-17T17:23:56;6.75;;;2.30;;
1154;SDS011;566;48.414;9.118;2022-10-17T17:26:23;10.85;;;2.55;;
1154;SDS011;566;48.414;9.118;2022-10-17T17:28:50;15.07;;;2.40;;
1154;SDS011;566;48.414;9.118;2022-10-17T17:31:21;7.70;;;2.67;;
1154;SDS011;566;48.414;9.118;2022-10-17T17:33:48;8.38;;;2.00;;
1154;SDS011;566;48.414;9.118;2022-10-17T17:36:18;10.75;;;2.30;;
1154;SDS011;566;48.414;9.118;2022-10-17T17:41:16;7.25;;;2.10;;
1154;SDS011;566;48.414;9.118;2022-10-17T17:43:43;6.72;;;1.90;;
1154;SDS011;566;48.414;9.118;2022-10-17T17:46:10;9.18;;;2.20;;
1154;SDS011;566;48.414;9.118;2022-10-17T17:48:37;7.63;;;1.90;;
1154;SDS011;566;48.414;9.118;2022-10-17T17:51:11;6.28;;;2.10;;
1154;SDS011;566;48.414;9.118;2022-10-17T17:53:38;15.23;;;2.63;;